Time;durP1;ratioP1;P1;durP2;ratioP2;P2;SDS_P1;SDS_P2;PMS_P1;PMS_P2;Temp;Humidity;BMP_temperature;BMP_pressure;BME280_temperature;BME280_humidity;BME280_pressure;Samples;Min_cycle;Max_cycle;Signal;HPM_P1;HPM_P2
2024/01/17 00:00:20;;;;;;;21.75;14.43;;;;;;;;;;4995894;28;25105;-73
2024/01/17 00:02:46;;;;;;;26.73;14.60;;;;;;;;;;5005607;28;25055;-73
2024/01/17 00:05:12;;;;;;;22.40;14.55;;;;;;;;;;5012815;28;25144;-73
2024/01/17 00:07:38;;;;;;;25.05;15.50;;;;;;;;;;5007060;28;25102;-74
2024/01/17 00:10:04;;;;;;;35.45;16.95;;;;;;;;;;5010342;28;25066;-74
2024/01/17 00:12:30;;;;;;;32.33;15.63;;;;;;;;;;5004315;28;25052;-74
2024/01/17 00:14:56;;;;;;;30.45;15.60;;;;;;;;;;4988155;28;25083;-72
2024/01/17 00:17:22;;;;;;;31.52;16.75;;;;;;;;;;5000831;28;25046;-72
2024/01/17 00:19:49;;;;;;;29.67;15.20;;;;;;;;;;5017941;28;25063;-72
2024/01/17 00:22:16;;;;;;;21.92;15.40;;;;;;;;;;4995137;28;25171;-73
2024/01/17 00:24:42;;;;;;;37.90;17.50;;;;;;;;;;5005020;28;25069;-74
2024/01/17 00:27:08;;;;;;;29.73;16.42;;;;;;;;;;5007260;28;25071;-73
2024/01/17 00:29:34;;;;;;;28.15;17.38;;;;;;;;;;5012364;28;25067;-76
2024/01/17 00:32:01;;;;;;;29.73;16.90;;;;;;;;;;5005538;28;25144;-73
2024/01/17 00:34:27;;;;;;;29.50;16.92;;;;;;;;;;5005534;28;25093;-74
2024/01/17 00:36:53;;;;;;;31.13;17.15;;;;;;;;;;5003322;28;25052;-76
2024/01/17 00:39:22;;;;;;;25.85;16.23;;;;;;;;;;5003508;28;25066;-74
2024/01/17 00:41:48;;;;;;;28.65;16.10;;;;;;;;;;4992668;28;25049;-72
2024/01/17 00:44:17;;;;;;;23.90;16.50;;;;;;;;;;5008014;28;25131;-73
2024/01/17 00:46:43;;;;;;;31.52;17.63;;;;;;;;;;5004834;28;25080;-73
2024/01/17 00:49:09;;;;;;;26.75;16.42;;;;;;;;;;5004629;28;25120;-73
2024/01/17 00:51:35;;;;;;;24.10;15.75;;;;;;;;;;5002716;28;25096;-73
2024/01/17 00:54:01;;;;;;;29.77;16.50;;;;;;;;;;4995876;28;25093;-73
2024/01/17 00:56:27;;;;;;;31.67;17.50;;;;;;;;;;5006200;28;25061;-74
2024/01/17 00:58:53;;;;;;;23.25;14.93;;;;;;;;;;4992719;28;25076;-75
2024/01/17 01:01:20;;;;;;;31.63;17.15;;;;;;;;;;4981857;28;25076;-72
2024/01/17 01:03:46;;;;;;;27.63;15.85;;;;;;;;;;5005255;28;25076;-74
2024/01/17 01:06:12;;;;;;;31.55;16.88;;;;;;;;;;5002072;28;25054;-73
2024/01/17 01:08:38;;;;;;;26.90;16.73;;;;;;;;;;5002627;28;25071;-73
2024/01/17 01:11:04;;;;;;;34.28;16.13;;;;;;;;;;5008499;28;25097;-71
2024/01/17 01:13:30;;;;;;;32.25;16.25;;;;;;;;;;5014305;28;25051;-75
2024/01/17 01:15:56;;;;;;;33.75;15.40;;;;;;;;;;5005933;28;25067;-74
2024/01/17 01:18:22;;;;;;;28.92;16.67;;;;;;;;;;5012448;28;25072;-73
2024/01/17 01:20:48;;;;;;;28.92;16.08;;;;;;;;;;5027837;28;25116;-73
2024/01/17 01:23:14;;;;;;;30.38;16.70;;;;;;;;;;5021822;28;25090;-73
2024/01/17 01:25:40;;;;;;;25.52;15.65;;;;;;;;;;5030161;28;25083;-73
2024/01/17 01:28:06;;;;;;;30.65;15.60;;;;;;;;;;5023165;28;25061;-73
2024/01/17 01:30:32;;;;;;;31.17;16.08;;;;;;;;;;5008323;28;25148;-73
2024/01/17 01:32:58;;;;;;;29.20;15.82;;;;;;;;;;5009946;28;25145;-73
2024/01/17 01:35:24;;;;;;;28.98;16.17;;;;;;;;;;4987822;28;25079;-75
2024/01/17 01:37:50;;;;;;;29.38;16.60;;;;;;;;;;5005566;28;25149;-74
2024/01/17 01:40:16;;;;;;;35.72;17.15;;;;;;;;;;5011813;28;25108;-73
2024/01/17 01:42:46;;;;;;;33.88;17.27;;;;;;;;;;5014838;28;25063;-74
2024/01/17 01:45:12;;;;;;;34.03;16.50;;;;;;;;;;4999726;28;25136;-73
2024/01/17 01:47:38;;;;;;;26.75;17.02;;;;;;;;;;5005901;28;25073;-73
2024/01/17 01:50:07;;;;;;;35.65;17.30;;;;;;;;;;5002563;28;25071;-73
2024/01/17 01:52:35;;;;;;;32.75;17.77;;;;;;;;;;5003860;28;25078;-74
2024/01/17 01:55:02;;;;;;;33.90;16.88;;;;;;;;;;5004146;28;25118;-74
2024/01/17 01:57:29;;;;;;;30.00;16.05;;;;;;;;;;4986465;28;25130;-76
2024/01/17 01:59:55;;;;;;;32.40;16.90;;;;;;;;;;5005085;28;25080;-75
2024/01/17 02:02:22;;;;;;;30.17;16.65;;;;;;;;;;5004897;28;25126;-74
2024/01/17 02:04:48;;;;;;;31.25;17.30;;;;;;;;;;5003187;28;25059;-73
2024/01/17 02:07:16;;;;;;;36.03;18.23;;;;;;;;;;4983656;28;25060;-74
2024/01/17 02:09:44;;;;;;;34.05;17.02;;;;;;;;;;5001485;28;25075;-72
2024/01/17 02:12:10;;;;;;;30.92;17.58;;;;;;;;;;5001233;28;25088;-69
2024/01/17 02:14:39;;;;;;;28.35;16.63;;;;;;;;;;5000847;28;25149;-75
2024/01/17 02:17:05;;;;;;;37.00;18.73;;;;;;;;;;5001385;28;25092;-75
2024/01/17 02:19:31;;;;;;;27.58;16.20;;;;;;;;;;4997780;28;25091;-72
2024/01/17 02:21:57;;;;;;;31.13;17.73;;;;;;;;;;5002682;28;25120;-70
2024/01/17 02:24:23;;;;;;;35.92;17.63;;;;;;;;;;5000868;28;25067;-73
2024/01/17 02:26:50;;;;;;;34.92;18.63;;;;;;;;;;5001347;28;25140;-70
2024/01/17 02:29:16;;;;;;;32.13;18.48;;;;;;;;;;5001090;28;25121;-72
2024/01/17 02:31:43;;;;;;;35.90;18.77;;;;;;;;;;4998976;28;25064;-74
2024/01/17 02:34:09;;;;;;;36.95;18.67;;;;;;;;;;5002000;28;25062;-71
2024/01/17 02:36:35;;;;;;;33.08;18.20;;;;;;;;;;4985890;28;25090;-72
2024/01/17 02:39:01;;;;;;;27.90;16.15;;;;;;;;;;5004685;28;25098;-73
2024/01/17 02:41:27;;;;;;;35.50;19.30;;;;;;;;;;5013827;28;25091;-73
2024/01/17 02:43:53;;;;;;;33.95;18.80;;;;;;;;;;5001949;28;25114;-71
2024/01/17 02:46:20;;;;;;;28.88;16.80;;;;;;;;;;5021069;28;25082;-75
2024/01/17 02:48:46;;;;;;;26.65;16.55;;;;;;;;;;4989587;28;25109;-74
2024/01/17 02:51:12;;;;;;;36.13;18.15;;;;;;;;;;5005692;28;25046;-73
2024/01/17 02:53:38;;;;;;;28.48;17.88;;;;;;;;;;5006421;28;25114;-74
2024/01/17 02:56:04;;;;;;;30.25;17.83;;;;;;;;;;5005544;28;25139;-75
2024/01/17 02:58:30;;;;;;;28.48;16.77;;;;;;;;;;4992761;28;25147;-71
2024/01/17 03:00:56;;;;;;;32.15;17.90;;;;;;;;;;4993061;28;25101;-72
2024/01/17 03:03:22;;;;;;;35.65;17.85;;;;;;;;;;5005430;28;25141;-71
2024/01/17 03:05:48;;;;;;;26.05;15.63;;;;;;;;;;5008695;28;25117;-72
2024/01/17 03:08:14;;;;;;;28.23;16.65;;;;;;;;;;5006435;28;25060;-72
2024/01/17 03:10:40;;;;;;;28.25;16.92;;;;;;;;;;4986592;28;25110;-71
2024/01/17 03:13:07;;;;;;;32.80;18.42;;;;;;;;;;5005388;28;25069;-71
2024/01/17 03:15:34;;;;;;;29.30;16.88;;;;;;;;;;5003933;28;25042;-71
2024/01/17 03:18:00;;;;;;;28.95;17.80;;;;;;;;;;5004465;28;25113;-71
2024/01/17 03:20:26;;;;;;;28.40;17.23;;;;;;;;;;5002788;28;25054;-71
2024/01/17 03:22:53;;;;;;;28.73;16.92;;;;;;;;;;5005047;28;25123;-73
2024/01/17 03:25:19;;;;;;;36.33;18.25;;;;;;;;;;5004925;28;25061;-74
2024/01/17 03:27:45;;;;;;;25.10;16.65;;;;;;;;;;5006092;28;25082;-76
2024/01/17 03:30:12;;;;;;;33.55;17.73;;;;;;;;;;5004651;28;25144;-76
2024/01/17 03:32:38;;;;;;;31.90;17.02;;;;;;;;;;5003479;28;25126;-74
2024/01/17 03:35:04;;;;;;;27.88;17.42;;;;;;;;;;5011238;28;25051;-71
2024/01/17 03:37:30;;;;;;;24.70;16.13;;;;;;;;;;5006354;28;25099;-72
2024/01/17 03:39:57;;;;;;;31.63;16.45;;;;;;;;;;5007181;28;25087;-71
2024/01/17 03:42:23;;;;;;;28.30;15.57;;;;;;;;;;4993972;28;25056;-76
2024/01/17 03:44:49;;;;;;;21.60;14.70;;;;;;;;;;5006747;28;25062;-73
2024/01/17 03:47:15;;;;;;;35.03;16.88;;;;;;;;;;5005671;28;25083;-72
2024/01/17 03:49:41;;;;;;;30.17;16.30;;;;;;;;;;5011771;28;25097;-74
2024/01/17 03:52:10;;;;;;;31.77;16.88;;;;;;;;;;5005780;28;25062;-71
2024/01/17 03:54:36;;;;;;;28.00;16.42;;;;;;;;;;5010550;28;25120;-72
2024/01/17 03:57:02;;;;;;;30.63;15.65;;;;;;;;;;4987423;28;25048;-72
2024/01/17 03:59:28;;;;;;;27.73;16.08;;;;;;;;;;4985683;28;25120;-75
2024/01/17 04:01:54;;;;;;;30.63;16.58;;;;;;;;;;4990407;28;25055;-71
2024/01/17 04:04:21;;;;;;;28.77;14.43;;;;;;;;;;5004035;28;25130;-71
2024/01/17 04:06:47;;;;;;;28.65;15.60;;;;;;;;;;5004545;28;25156;-74
2024/01/17 04:09:13;;;;;;;28.23;14.55;;;;;;;;;;4990775;28;25069;-75
2024/01/17 04:11:39;;;;;;;28.38;14.32;;;;;;;;;;5008417;28;25063;-72
2024/01/17 04:14:06;;;;;;;21.42;14.65;;;;;;;;;;5004187;28;25063;-70
2024/01/17 04:16:32;;;;;;;28.77;15.60;;;;;;;;;;5004712;28;25137;-72
2024/01/17 04:18:58;;;;;;;21.70;14.77;;;;;;;;;;5006283;28;25079;-73
2024/01/17 04:21:24;;;;;;;28.27;15.25;;;;;;;;;;5009185;28;25057;-72
2024/01/17 04:23:50;;;;;;;24.80;15.32;;;;;;;;;;5004210;28;25107;-72
2024/01/17 04:26:21;;;;;;;29.20;15.18;;;;;;;;;;5004839;28;25181;-74
2024/01/17 04:28:47;;;;;;;26.95;16.50;;;;;;;;;;5002447;28;25053;-71
2024/01/17 04:31:21;;;;;;;28.00;15.20;;;;;;;;;;5005069;28;25084;-71
2024/01/17 04:33:47;;;;;;;22.92;14.93;;;;;;;;;;5005954;28;25087;-72
2024/01/17 04:36:16;;;;;;;25.48;14.95;;;;;;;;;;4992771;28;25077;-71
2024/01/17 04:38:42;;;;;;;25.95;14.85;;;;;;;;;;5022261;28;25097;-74
2024/01/17 04:41:09;;;;;;;27.17;15.60;;;;;;;;;;5002260;28;25101;-76
2024/01/17 04:43:35;;;;;;;28.58;15.35;;;;;;;;;;5009910;28;25116;-76
2024/01/17 04:46:01;;;;;;;27.50;15.43;;;;;;;;;;5028121;28;25199;-75
2024/01/17 04:48:27;;;;;;;24.17;15.82;;;;;;;;;;5025864;28;25117;-75
2024/01/17 04:50:58;;;;;;;23.38;15.95;;;;;;;;;;5021372;28;25109;-72
2024/01/17 04:53:24;;;;;;;19.10;14.35;;;;;;;;;;5003282;28;25076;-75
2024/01/17 04:55:50;;;;;;;24.77;15.23;;;;;;;;;;5003972;28;25050;-74
2024/01/17 04:58:17;;;;;;;21.80;14.95;;;;;;;;;;5007090;28;25125;-73
2024/01/17 05:00:47;;;;;;;23.83;15.90;;;;;;;;;;4986146;28;25067;-75
2024/01/17 05:03:13;;;;;;;22.45;15.13;;;;;;;;;;5006008;28;25125;-72
2024/01/17 05:05:43;;;;;;;25.17;15.05;;;;;;;;;;5004879;28;25049;-73
2024/01/17 05:08:09;;;;;;;20.50;14.70;;;;;;;;;;5005119;28;25050;-74
2024/01/17 05:10:35;;;;;;;27.83;15.57;;;;;;;;;;5022171;28;25096;-79
2024/01/17 05:13:01;;;;;;;28.15;14.50;;;;;;;;;;5022928;28;25057;-72
2024/01/17 05:15:27;;;;;;;25.15;14.45;;;;;;;;;;4997993;28;25110;-73
2024/01/17 05:17:54;;;;;;;24.58;15.05;;;;;;;;;;5005480;28;25084;-73
2024/01/17 05:20:20;;;;;;;24.65;16.17;;;;;;;;;;5007896;28;25214;-72
2024/01/17 05:22:46;;;;;;;25.98;16.55;;;;;;;;;;5003684;28;25089;-73
2024/01/17 05:25:13;;;;;;;26.10;14.82;;;;;;;;;;4985714;28;25058;-71
2024/01/17 05:27:39;;;;;;;30.83;14.82;;;;;;;;;;5004790;28;25067;-74
2024/01/17 05:30:09;;;;;;;23.92;14.98;;;;;;;;;;5001802;28;25054;-73
2024/01/17 05:32:36;;;;;;;24.38;14.40;;;;;;;;;;4981565;28;25094;-74
2024/01/17 05:35:02;;;;;;;25.98;14.90;;;;;;;;;;5005261;28;25072;-73
2024/01/17 05:37:28;;;;;;;28.45;15.52;;;;;;;;;;5009519;28;25068;-73
2024/01/17 05:39:54;;;;;;;21.58;15.10;;;;;;;;;;5014338;28;25050;-72
2024/01/17 05:42:20;;;;;;;26.35;14.50;;;;;;;;;;5003790;28;25097;-73
2024/01/17 05:44:46;;;;;;;27.83;13.90;;;;;;;;;;5007154;28;25071;-74
2024/01/17 05:47:12;;;;;;;23.08;13.38;;;;;;;;;;4998932;28;25069;-75
2024/01/17 05:49:38;;;;;;;21.55;14.20;;;;;;;;;;5005135;28;25056;-73
2024/01/17 05:52:04;;;;;;;31.10;14.57;;;;;;;;;;5003139;28;25107;-73
2024/01/17 05:54:30;;;;;;;21.98;13.70;;;;;;;;;;5004503;28;25159;-73
2024/01/17 05:56:56;;;;;;;26.70;13.23;;;;;;;;;;5003916;28;25075;-73
2024/01/17 05:59:22;;;;;;;29.42;14.23;;;;;;;;;;5003362;28;25089;-75
2024/01/17 06:01:48;;;;;;;24.08;15.05;;;;;;;;;;5010165;28;25058;-73
2024/01/17 06:04:14;;;;;;;24.65;14.50;;;;;;;;;;5003555;28;25144;-73
2024/01/17 06:06:40;;;;;;;23.08;14.80;;;;;;;;;;5007508;28;25143;-73
2024/01/17 06:09:07;;;;;;;23.08;14.10;;;;;;;;;;4988494;28;25079;-75
2024/01/17 06:11:33;;;;;;;24.92;13.20;;;;;;;;;;5001063;28;25067;-75
2024/01/17 06:14:03;;;;;;;31.98;14.80;;;;;;;;;;5003321;28;25064;-70
2024/01/17 06:16:29;;;;;;;25.85;14.27;;;;;;;;;;4987032;28;25080;-72
2024/01/17 06:19:01;;;;;;;23.52;12.77;;;;;;;;;;5000350;28;25098;-73
2024/01/17 06:21:27;;;;;;;22.08;12.15;;;;;;;;;;4976802;28;25115;-73
2024/01/17 06:23:53;;;;;;;24.60;12.90;;;;;;;;;;5006843;28;25158;-74
2024/01/17 06:26:19;;;;;;;25.17;13.50;;;;;;;;;;5010932;28;25073;-74
2024/01/17 06:28:45;;;;;;;22.95;12.23;;;;;;;;;;5004430;28;25066;-71
2024/01/17 06:31:11;;;;;;;26.23;13.05;;;;;;;;;;5007034;28;25107;-74
2024/01/17 06:33:39;;;;;;;24.42;13.20;;;;;;;;;;5008067;28;25095;-74
2024/01/17 06:36:05;;;;;;;26.10;12.68;;;;;;;;;;4990939;28;25046;-71
2024/01/17 06:38:31;;;;;;;23.25;13.10;;;;;;;;;;5005834;28;25057;-73
2024/01/17 06:40:57;;;;;;;26.48;12.65;;;;;;;;;;4987937;28;25073;-75
2024/01/17 06:43:23;;;;;;;23.33;12.43;;;;;;;;;;5004428;28;25147;-77
2024/01/17 06:45:49;;;;;;;27.73;12.90;;;;;;;;;;5007388;28;25158;-73
2024/01/17 06:48:15;;;;;;;22.98;12.25;;;;;;;;;;5003658;28;25075;-71
2024/01/17 06:50:41;;;;;;;18.52;11.18;;;;;;;;;;5005254;28;25164;-71
2024/01/17 06:53:07;;;;;;;25.52;11.95;;;;;;;;;;5004974;28;25099;-74
2024/01/17 06:55:33;;;;;;;20.77;12.23;;;;;;;;;;5006366;28;25136;-73
2024/01/17 06:57:59;;;;;;;27.35;12.70;;;;;;;;;;5008918;28;25110;-72
2024/01/17 07:00:25;;;;;;;23.08;12.32;;;;;;;;;;5006869;28;25118;-71
2024/01/17 07:02:51;;;;;;;21.60;12.45;;;;;;;;;;5006613;28;25113;-72
2024/01/17 07:05:17;;;;;;;23.08;12.30;;;;;;;;;;5009234;28;25070;-72
2024/01/17 07:07:43;;;;;;;23.80;12.30;;;;;;;;;;5016007;28;25076;-73
2024/01/17 07:10:10;;;;;;;24.35;11.93;;;;;;;;;;5022135;28;25075;-73
2024/01/17 07:12:36;;;;;;;18.95;11.15;;;;;;;;;;5020690;28;25067;-74
2024/01/17 07:15:02;;;;;;;23.65;11.93;;;;;;;;;;5019198;28;25055;-72
2024/01/17 07:17:28;;;;;;;22.30;12.85;;;;;;;;;;5013448;28;25157;-73
2024/01/17 07:19:54;;;;;;;28.42;13.43;;;;;;;;;;5012430;28;25063;-74
2024/01/17 07:22:20;;;;;;;22.92;13.50;;;;;;;;;;5008291;28;25075;-74
2024/01/17 07:24:46;;;;;;;22.63;13.63;;;;;;;;;;5007999;28;25101;-75
2024/01/17 07:27:12;;;;;;;24.17;12.45;;;;;;;;;;5006862;28;25138;-75
2024/01/17 07:29:38;;;;;;;27.08;13.00;;;;;;;;;;5007452;28;25103;-74
2024/01/17 07:32:04;;;;;;;23.98;12.02;;;;;;;;;;4985780;28;25063;-72
2024/01/17 07:34:30;;;;;;;25.92;12.15;;;;;;;;;;5008504;28;25089;-72
2024/01/17 07:36:56;;;;;;;23.13;12.80;;;;;;;;;;5009397;28;25057;-74
2024/01/17 07:39:22;;;;;;;19.88;11.90;;;;;;;;;;5008905;28;25052;-74
2024/01/17 07:41:49;;;;;;;19.95;13.55;;;;;;;;;;5006841;28;25100;-73
2024/01/17 07:44:15;;;;;;;24.30;12.70;;;;;;;;;;5005223;28;25071;-76
2024/01/17 07:46:41;;;;;;;23.40;11.95;;;;;;;;;;5007100;28;25145;-74
2024/01/17 07:49:07;;;;;;;18.75;12.00;;;;;;;;;;5005444;28;25058;-73
2024/01/17 07:51:33;;;;;;;22.70;12.43;;;;;;;;;;5006622;28;25073;-72
2024/01/17 07:53:59;;;;;;;14.98;10.70;;;;;;;;;;5013240;28;25109;-73
2024/01/17 07:56:25;;;;;;;19.83;11.18;;;;;;;;;;4995706;28;25057;-73
2024/01/17 07:58:51;;;;;;;22.55;12.30;;;;;;;;;;4996972;28;25135;-72
2024/01/17 08:01:17;;;;;;;17.48;10.82;;;;;;;;;;5003923;28;25120;-72
2024/01/17 08:03:43;;;;;;;20.10;10.90;;;;;;;;;;5011576;28;25105;-71
2024/01/17 08:06:09;;;;;;;20.73;10.68;;;;;;;;;;5008394;28;25062;-72
2024/01/17 08:08:36;;;;;;;21.77;11.43;;;;;;;;;;4990482;28;25072;-73
2024/01/17 08:11:02;;;;;;;19.33;12.20;;;;;;;;;;5010031;28;25163;-74
2024/01/17 08:13:28;;;;;;;21.75;12.43;;;;;;;;;;5008806;28;25087;-73
2024/01/17 08:15:54;;;;;;;19.40;10.98;;;;;;;;;;5011976;28;25093;-74
2024/01/17 08:18:20;;;;;;;16.05;11.43;;;;;;;;;;5009574;28;25056;-75
2024/01/17 08:20:46;;;;;;;21.02;11.48;;;;;;;;;;5007985;28;25063;-74
2024/01/17 08:23:12;;;;;;;20.80;11.07;;;;;;;;;;5010389;28;25066;-74
2024/01/17 08:25:38;;;;;;;18.08;10.88;;;;;;;;;;5007668;28;25121;-72
2024/01/17 08:28:05;;;;;;;15.95;11.10;;;;;;;;;;5008799;28;25055;-74
2024/01/17 08:30:31;;;;;;;19.88;10.70;;;;;;;;;;5010044;28;25061;-72
2024/01/17 08:32:57;;;;;;;16.05;11.13;;;;;;;;;;5022967;28;25078;-72
2024/01/17 08:35:23;;;;;;;20.27;10.32;;;;;;;;;;5019590;28;25081;-73
2024/01/17 08:37:48;;;;;;;22.35;11.45;;;;;;;;;;4995935;28;25135;-74
2024/01/17 08:40:15;;;;;;;14.65;10.23;;;;;;;;;;5013958;28;25167;-71
2024/01/17 08:42:44;;;;;;;18.70;10.50;;;;;;;;;;5013706;28;25057;-72
2024/01/17 08:45:10;;;;;;;15.80;10.18;;;;;;;;;;4988243;28;25144;-75
2024/01/17 08:47:36;;;;;;;17.38;9.63;;;;;;;;;;5005071;28;25136;-73
2024/01/17 08:50:03;;;;;;;19.38;10.30;;;;;;;;;;5004141;28;25062;-76
2024/01/17 08:52:30;;;;;;;17.35;9.60;;;;;;;;;;5001016;28;25103;-74
2024/01/17 08:54:56;;;;;;;15.15;9.20;;;;;;;;;;5004607;28;25150;-73
2024/01/17 08:57:22;;;;;;;19.85;11.25;;;;;;;;;;5005273;28;25056;-74
2024/01/17 08:59:48;;;;;;;17.08;10.30;;;;;;;;;;5000670;28;25109;-73
2024/01/17 09:02:14;;;;;;;15.35;10.35;;;;;;;;;;5002633;28;25051;-74
2024/01/17 09:04:41;;;;;;;16.13;10.77;;;;;;;;;;5002596;28;25152;-73
2024/01/17 09:07:08;;;;;;;20.80;10.73;;;;;;;;;;5005805;28;25054;-72
2024/01/17 09:09:34;;;;;;;17.40;10.48;;;;;;;;;;4984017;28;25074;-71
2024/01/17 09:12:00;;;;;;;16.58;10.60;;;;;;;;;;5003954;28;25082;-72
2024/01/17 09:14:26;;;;;;;24.00;12.15;;;;;;;;;;4996475;28;25079;-72
2024/01/17 09:16:53;;;;;;;17.13;10.30;;;;;;;;;;4986014;28;25059;-71
2024/01/17 09:19:20;;;;;;;23.25;10.88;;;;;;;;;;5003276;28;25082;-78
2024/01/17 09:21:47;;;;;;;18.27;10.80;;;;;;;;;;5000700;28;25106;-72
2024/01/17 09:24:13;;;;;;;15.75;10.15;;;;;;;;;;4982047;28;25097;-73
2024/01/17 09:26:39;;;;;;;16.25;10.75;;;;;;;;;;4984865;28;25089;-71
2024/01/17 09:29:05;;;;;;;24.70;10.63;;;;;;;;;;5002293;28;25067;-72
2024/01/17 09:31:31;;;;;;;17.20;10.18;;;;;;;;;;5003337;28;25068;-71
2024/01/17 09:33:57;;;;;;;21.40;10.82;;;;;;;;;;4996820;28;25057;-72
2024/01/17 09:36:23;;;;;;;15.35;10.10;;;;;;;;;;5003350;28;25083;-71
2024/01/17 09:38:49;;;;;;;19.20;10.40;;;;;;;;;;4999531;28;25067;-72
2024/01/17 09:41:15;;;;;;;16.60;10.75;;;;;;;;;;4999160;28;25051;-73
2024/01/17 09:43:41;;;;;;;17.90;10.50;;;;;;;;;;5003291;28;25135;-74
2024/01/17 09:46:12;;;;;;;18.95;10.50;;;;;;;;;;5004255;28;25147;-72
2024/01/17 09:48:39;;;;;;;19.17;10.80;;;;;;;;;;5003555;28;25056;-72
2024/01/17 09:51:05;;;;;;;20.65;10.98;;;;;;;;;;5001827;28;25056;-72
2024/01/17 09:53:32;;;;;;;22.15;10.77;;;;;;;;;;5003330;28;25094;-72
2024/01/17 09:56:01;;;;;;;18.92;11.60;;;;;;;;;;5005079;28;25143;-73
2024/01/17 09:58:31;;;;;;;17.55;10.60;;;;;;;;;;5003471;28;25126;-72
2024/01/17 10:00:59;;;;;;;21.75;11.00;;;;;;;;;;5001773;28;25056;-74
2024/01/17 10:03:27;;;;;;;17.90;10.90;;;;;;;;;;5003863;28;25048;-73
2024/01/17 10:05:57;;;;;;;15.50;9.68;;;;;;;;;;5004075;28;25138;-72
2024/01/17 10:08:24;;;;;;;18.88;11.43;;;;;;;;;;4986725;28;25128;-73
2024/01/17 10:10:50;;;;;;;19.15;10.45;;;;;;;;;;5009573;28;25097;-72
2024/01/17 10:13:16;;;;;;;20.80;10.27;;;;;;;;;;5007259;23;25095;-76
2024/01/17 10:15:42;;;;;;;18.83;10.70;;;;;;;;;;4984955;28;25134;-76
2024/01/17 10:20:36;;;;;;;21.33;10.88;;;;;;;;;;4934263;28;25107;-67
2024/01/17 10:23:04;;;;;;;20.30;11.15;;;;;;;;;;4943689;28;25095;-67
2024/01/17 10:25:37;;;;;;;18.58;10.98;;;;;;;;;;4953518;28;25082;-66
2024/01/17 10:28:03;;;;;;;15.55;10.52;;;;;;;;;;4941329;28;25056;-67
2024/01/17 10:30:29;;;;;;;17.50;10.35;;;;;;;;;;4949135;28;25106;-66
2024/01/17 10:32:56;;;;;;;18.73;11.05;;;;;;;;;;4951662;28;25087;-66
2024/01/17 10:35:23;;;;;;;15.60;10.27;;;;;;;;;;4943848;28;25085;-66
2024/01/17 10:37:51;;;;;;;16.70;10.60;;;;;;;;;;4950745;28;25055;-66
2024/01/17 10:40:18;;;;;;;18.35;10.27;;;;;;;;;;4940681;28;25056;-65
2024/01/17 10:42:44;;;;;;;20.83;12.02;;;;;;;;;;4941133;28;25061;-67
2024/01/17 10:45:20;;;;;;;23.85;11.00;;;;;;;;;;4946392;28;25049;-67
2024/01/17 10:47:46;;;;;;;18.55;12.55;;;;;;;;;;4954281;28;25063;-66
2024/01/17 10:50:12;;;;;;;23.73;11.45;;;;;;;;;;4955383;28;25141;-67
2024/01/17 10:52:40;;;;;;;22.38;13.05;;;;;;;;;;4950570;28;25136;-67
2024/01/17 10:55:08;;;;;;;21.15;12.05;;;;;;;;;;4955922;28;25058;-66
2024/01/17 10:57:34;;;;;;;21.67;12.30;;;;;;;;;;4932306;28;25100;-67
2024/01/17 11:00:03;;;;;;;20.25;11.55;;;;;;;;;;4949461;28;25072;-67
2024/01/17 11:02:30;;;;;;;15.95;11.80;;;;;;;;;;4951145;28;26201;-66
2024/01/17 11:04:58;;;;;;;17.45;10.30;;;;;;;;;;4945377;28;25070;-66
2024/01/17 11:07:24;;;;;;;19.67;11.50;;;;;;;;;;4947203;28;25099;-65
2024/01/17 11:09:51;;;;;;;21.27;11.90;;;;;;;;;;4943898;28;25062;-66
2024/01/17 11:12:18;;;;;;;18.42;11.25;;;;;;;;;;4939932;28;25105;-66
2024/01/17 11:14:45;;;;;;;20.20;11.73;;;;;;;;;;4955275;28;25066;-67
2024/01/17 11:17:11;;;;;;;19.45;10.57;;;;;;;;;;4955214;28;25066;-67
2024/01/17 11:19:37;;;;;;;23.42;11.98;;;;;;;;;;4949599;28;25063;-66
2024/01/17 11:22:03;;;;;;;21.45;11.13;;;;;;;;;;4954103;28;25075;-68
2024/01/17 11:24:32;;;;;;;16.88;11.40;;;;;;;;;;4958950;28;25061;-67
2024/01/17 11:26:58;;;;;;;17.00;11.63;;;;;;;;;;4947559;28;25068;-67
2024/01/17 11:29:38;;;;;;;25.58;12.40;;;;;;;;;;4949922;28;25053;-66
2024/01/17 11:32:13;;;;;;;20.23;12.38;;;;;;;;;;4949509;28;25095;-67
2024/01/17 11:34:39;;;;;;;20.88;11.60;;;;;;;;;;4947588;28;25084;-68
2024/01/17 11:37:05;;;;;;;19.25;11.07;;;;;;;;;;4957958;28;25063;-67
2024/01/17 11:39:31;;;;;;;20.70;12.20;;;;;;;;;;4951957;28;25086;-66
2024/01/17 11:41:57;;;;;;;22.25;12.80;;;;;;;;;;4951045;28;25134;-66
2024/01/17 11:44:23;;;;;;;21.20;13.10;;;;;;;;;;4950348;28;25115;-66
2024/01/17 11:46:51;;;;;;;20.35;13.00;;;;;;;;;;4949518;28;25066;-67
2024/01/17 11:49:27;;;;;;;22.00;13.30;;;;;;;;;;4959365;28;25053;-67
2024/01/17 11:51:53;;;;;;;22.52;12.25;;;;;;;;;;4953762;28;25070;-67
2024/01/17 11:54:19;;;;;;;23.83;13.70;;;;;;;;;;4957654;28;25066;-67
2024/01/17 11:56:45;;;;;;;26.33;13.50;;;;;;;;;;4956442;28;25142;-67
2024/01/17 11:59:12;;;;;;;25.85;14.27;;;;;;;;;;4948432;28;25100;-67
2024/01/17 12:01:38;;;;;;;26.38;14.02;;;;;;;;;;4949803;28;25062;-66
2024/01/17 12:04:22;;;;;;;23.15;13.30;;;;;;;;;;4944885;28;25134;-66
2024/01/17 12:06:50;;;;;;;24.52;13.85;;;;;;;;;;4946961;28;25138;-66
2024/01/17 12:09:19;;;;;;;22.67;13.52;;;;;;;;;;4954088;28;25056;-67
2024/01/17 12:11:46;;;;;;;21.75;12.32;;;;;;;;;;4948997;28;25067;-66
2024/01/17 12:14:12;;;;;;;19.48;13.55;;;;;;;;;;4940558;28;25165;-68
2024/01/17 12:16:38;;;;;;;22.60;13.55;;;;;;;;;;4943301;28;25134;-66
2024/01/17 12:19:04;;;;;;;24.13;13.18;;;;;;;;;;4939327;28;25180;-67
2024/01/17 12:21:30;;;;;;;24.38;13.80;;;;;;;;;;4950498;28;25061;-67
2024/01/17 12:23:56;;;;;;;23.50;13.48;;;;;;;;;;4949364;28;25084;-65
2024/01/17 12:26:22;;;;;;;25.20;14.60;;;;;;;;;;4951746;28;25103;-66
2024/01/17 12:28:48;;;;;;;20.92;12.68;;;;;;;;;;4943759;28;25070;-67
2024/01/17 12:31:16;;;;;;;21.98;13.73;;;;;;;;;;4944211;28;25098;-66
2024/01/17 12:33:43;;;;;;;19.15;13.13;;;;;;;;;;4945967;28;25129;-67
2024/01/17 12:36:09;;;;;;;22.10;13.38;;;;;;;;;;4948513;28;25078;-66
2024/01/17 12:38:39;;;;;;;24.17;14.57;;;;;;;;;;4958135;28;25062;-67
2024/01/17 12:41:05;;;;;;;25.15;14.10;;;;;;;;;;4943751;28;25051;-66
2024/01/17 12:43:35;;;;;;;20.45;13.25;;;;;;;;;;4947214;28;25095;-66
2024/01/17 12:46:01;;;;;;;21.73;13.30;;;;;;;;;;4951956;28;25130;-68
2024/01/17 12:48:28;;;;;;;24.40;13.85;;;;;;;;;;4950356;28;25077;-67
2024/01/17 12:50:57;;;;;;;26.13;14.90;;;;;;;;;;4941945;28;25053;-66
2024/01/17 12:53:27;;;;;;;24.75;13.77;;;;;;;;;;4943449;28;25077;-66
2024/01/17 12:55:54;;;;;;;23.73;13.27;;;;;;;;;;4939189;28;25053;-66
2024/01/17 12:58:20;;;;;;;24.85;13.88;;;;;;;;;;4944765;28;25104;-67
2024/01/17 13:00:47;;;;;;;24.70;14.10;;;;;;;;;;4948882;28;25050;-66
2024/01/17 13:03:14;;;;;;;25.05;13.85;;;;;;;;;;4948770;28;25063;-67
2024/01/17 13:05:40;;;;;;;24.27;13.40;;;;;;;;;;4943065;28;25070;-65
2024/01/17 13:08:22;;;;;;;19.00;12.77;;;;;;;;;;4943399;28;25059;-67
2024/01/17 13:10:55;;;;;;;22.20;13.00;;;;;;;;;;4952574;28;25054;-67
2024/01/17 13:13:21;;;;;;;;;;;;;;;;;;4949885;28;25068;-66
2024/01/17 13:15:55;;;;;;;24.70;14.75;;;;;;;;;;4953674;28;25060;-67
2024/01/17 13:18:21;;;;;;;21.95;13.80;;;;;;;;;;4953105;28;25049;-66
2024/01/17 13:20:47;;;;;;;18.92;14.20;;;;;;;;;;4949500;28;25054;-67
2024/01/17 13:23:13;;;;;;;28.70;14.15;;;;;;;;;;4949787;28;25057;-66
2024/01/17 13:25:40;;;;;;;21.55;12.30;;;;;;;;;;4948300;28;25052;-66
2024/01/17 13:28:08;;;;;;;20.60;13.02;;;;;;;;;;4948463;28;25159;-66
2024/01/17 13:30:37;;;;;;;20.50;12.65;;;;;;;;;;4942123;28;25151;-66
2024/01/17 13:33:06;;;;;;;23.33;13.05;;;;;;;;;;4948293;28;25075;-67
2024/01/17 13:35:35;;;;;;;18.77;11.32;;;;;;;;;;4942590;28;25081;-67
2024/01/17 13:38:05;;;;;;;25.05;13.75;;;;;;;;;;4949564;28;25077;-67
2024/01/17 13:40:32;;;;;;;24.17;13.30;;;;;;;;;;4950387;28;25064;-68
2024/01/17 13:42:58;;;;;;;21.58;13.02;;;;;;;;;;4950432;28;25124;-66
2024/01/17 13:45:27;;;;;;;20.80;12.98;;;;;;;;;;4950964;28;25048;-67
2024/01/17 13:47:55;;;;;;;20.25;12.32;;;;;;;;;;4948380;28;25097;-67
2024/01/17 13:50:21;;;;;;;21.65;12.88;;;;;;;;;;4951061;28;25128;-68
2024/01/17 13:52:52;;;;;;;19.98;12.38;;;;;;;;;;4955080;28;25067;-66
2024/01/17 13:55:19;;;;;;;22.05;12.18;;;;;;;;;;4945989;28;25078;-65
2024/01/17 13:57:45;;;;;;;21.73;13.80;;;;;;;;;;4945716;28;26200;-66
2024/01/17 14:00:11;;;;;;;22.98;13.90;;;;;;;;;;4951704;28;25068;-67
2024/01/17 14:02:37;;;;;;;23.98;14.65;;;;;;;;;;4948688;28;25067;-66
2024/01/17 14:05:04;;;;;;;37.28;14.40;;;;;;;;;;4951915;28;25119;-66
2024/01/17 14:07:30;;;;;;;21.52;14.38;;;;;;;;;;4945491;28;25138;-65
2024/01/17 14:09:56;;;;;;;22.70;15.73;;;;;;;;;;4946181;28;25086;-67
2024/01/17 14:12:22;;;;;;;23.55;14.30;;;;;;;;;;4946047;28;25125;-67
2024/01/17 14:14:48;;;;;;;22.20;14.05;;;;;;;;;;4955693;28;25056;-67
2024/01/17 14:17:14;;;;;;;23.63;13.98;;;;;;;;;;4944432;28;25071;-67